North Adams, Massachusetts
Current Conditions -  °F | °C
As of 10:52 AM on Saturday 25 Oct 2014 (Local Time) from KAQW Reporting Station
Clear Clear  
Wind Chill: 52°   Ceiling: Unl
Heat Index: 52°   Visibility: 9mi
Dew Point: 44°   Wind: 5mph
Humidity: 74%   Direction: NA
Pressure: 29.78"   Gusts: NA
Location:  42.7°N, 73.11°W
Report Text: KAQW 251452Z AUTO VRB04KT 9SM CLR 11/07 A2978 RMK AO2 SLP088 T01110067 58014
Loading
Personal Weather Stations






























Interactive Weather Map
Tropical Storm Tracking
New forecast layout! Learn more

10-Day Weather Forecast

Advertisements
Track Severe Weather on mobile